createdAt,value
2022-12-03T13:06:25.694Z,4.68
2022-12-03T13:08:53.560Z,6.22
2022-12-03T13:11:41.598Z,5.65
2022-12-03T13:14:24.926Z,5.93
2022-12-03T13:16:54.832Z,10.45
2022-12-03T13:19:46.053Z,11.48
2022-12-03T13:22:23.033Z,8.80
2022-12-03T13:27:20.455Z,10.65
2022-12-03T13:30:01.119Z,14.90
2022-12-03T13:32:37.077Z,11.40
2022-12-03T13:35:30.697Z,10.63
2022-12-03T13:38:00.556Z,48.05
2022-12-03T13:40:35.063Z,17.38
2022-12-03T13:43:12.432Z,22.98
2022-12-03T13:45:41.503Z,23.73
2022-12-03T13:48:31.545Z,22.25
2022-12-03T13:51:26.548Z,19.45
2022-12-03T13:53:54.366Z,12.43
2022-12-03T13:56:32.923Z,9.95
2022-12-03T13:59:01.361Z,9.27
2022-12-03T14:01:29.845Z,6.60
2022-12-03T14:03:57.017Z,6.60
2022-12-03T14:06:24.087Z,15.07
2022-12-03T14:08:51.597Z,36.85
2022-12-03T14:11:37.373Z,19.75
2022-12-03T14:14:04.526Z,16.08
2022-12-03T14:16:31.719Z,13.48
2022-12-03T14:18:58.773Z,13.88
2022-12-03T14:21:25.717Z,12.27
2022-12-03T14:23:52.769Z,12.90
2022-12-03T14:26:19.713Z,16.17
2022-12-03T14:28:46.806Z,15.63
2022-12-03T14:31:13.888Z,26.52
2022-12-03T14:33:41.104Z,50.75
2022-12-03T14:36:08.459Z,30.55
2022-12-03T14:38:35.402Z,60.70
2022-12-03T14:41:04.497Z,32.30
2022-12-03T14:43:31.441Z,20.63
2022-12-03T14:45:58.636Z,19.30
2022-12-03T14:48:25.691Z,23.95
2022-12-03T14:50:52.788Z,30.48
2022-12-03T14:53:25.591Z,28.60
2022-12-03T14:55:55.846Z,25.83
2022-12-03T14:58:22.782Z,21.42
2022-12-03T15:00:49.957Z,43.63
2022-12-03T15:03:17.134Z,20.55
2022-12-03T15:05:44.229Z,18.00
2022-12-03T15:08:11.261Z,19.67
2022-12-03T15:10:38.375Z,13.88
2022-12-03T15:13:05.318Z,7.18
2022-12-03T15:15:32.416Z,8.48
2022-12-03T15:17:59.567Z,6.90
2022-12-03T15:20:26.510Z,8.60
2022-12-03T15:22:53.503Z,7.10
2022-12-03T15:25:24.700Z,8.48
2022-12-03T15:27:51.986Z,8.68
2022-12-03T15:30:20.801Z,8.65
2022-12-03T15:32:47.737Z,7.40
2022-12-03T15:35:17.902Z,6.22
2022-12-03T15:37:45.512Z,7.50
2022-12-03T15:40:13.532Z,4.68
2022-12-03T15:42:40.526Z,5.43
2022-12-03T15:45:13.442Z,6.22
2022-12-03T15:47:41.992Z,6.10
2022-12-03T15:50:09.296Z,4.97
2022-12-03T15:52:36.394Z,4.82
2022-12-03T15:55:04.156Z,5.25
2022-12-03T15:57:31.408Z,5.47
2022-12-03T15:59:58.405Z,5.53
2022-12-03T16:02:25.527Z,5.43
2022-12-03T16:04:52.496Z,5.60
2022-12-03T16:07:19.647Z,6.00
2022-12-03T16:09:46.641Z,5.95
2022-12-03T16:12:14.201Z,4.28
2022-12-03T16:14:41.198Z,3.60
2022-12-03T16:17:08.205Z,6.53
2022-12-03T16:19:36.569Z,6.35
2022-12-03T16:22:03.670Z,15.85
2022-12-03T16:24:30.723Z,9.77
2022-12-03T16:26:57.964Z,7.40
2022-12-03T16:29:25.062Z,7.30
2022-12-03T16:31:52.159Z,9.10
2022-12-03T16:34:19.210Z,9.75
2022-12-03T16:36:46.201Z,9.00
2022-12-03T16:39:13.559Z,7.22
2022-12-03T16:41:40.551Z,8.52
2022-12-03T16:44:07.750Z,11.95
2022-12-03T16:46:34.915Z,13.65
2022-12-03T16:49:01.845Z,13.75
2022-12-03T16:51:30.417Z,21.67
2022-12-03T16:53:57.422Z,17.38
2022-12-03T16:56:24.473Z,36.00
2022-12-03T16:58:51.516Z,56.13
2022-12-03T17:01:18.762Z,33.47
2022-12-03T17:03:45.865Z,20.52
2022-12-03T17:06:12.810Z,21.17
2022-12-03T17:08:44.374Z,24.02
2022-12-03T17:11:14.531Z,19.58
2022-12-03T17:13:41.628Z,16.17
2022-12-03T17:16:08.864Z,18.63
2022-12-03T17:18:35.823Z,19.67
2022-12-03T17:21:03.231Z,21.88
2022-12-03T17:23:30.199Z,30.95
2022-12-03T17:25:57.168Z,20.67
2022-12-03T17:28:24.112Z,18.45
2022-12-03T17:30:51.174Z,18.95
2022-12-03T17:33:18.359Z,16.77
2022-12-03T17:35:46.685Z,18.13
2022-12-03T17:38:13.630Z,20.60
2022-12-03T17:40:40.675Z,20.15
2022-12-03T17:43:07.671Z,22.13
2022-12-03T17:45:35.895Z,23.35
2022-12-03T17:48:04.124Z,21.10
2022-12-03T17:50:31.063Z,30.02
2022-12-03T17:52:58.676Z,32.17
2022-12-03T17:55:34.595Z,28.48
2022-12-03T17:58:06.421Z,28.30
2022-12-03T18:00:34.098Z,20.98
2022-12-03T18:03:01.094Z,20.10
2022-12-03T18:05:28.089Z,14.55
2022-12-03T18:07:55.272Z,12.57
2022-12-03T18:10:22.898Z,15.18
2022-12-03T18:12:49.898Z,11.75
2022-12-03T18:15:17.094Z,14.88
2022-12-03T18:17:44.142Z,12.00
2022-12-03T18:20:11.341Z,13.30
2022-12-03T18:22:38.747Z,11.35
2022-12-03T18:25:07.127Z,14.27
2022-12-03T18:27:34.430Z,14.73
2022-12-03T18:30:02.871Z,13.85
2022-12-03T18:32:30.274Z,11.68
2022-12-03T18:34:57.910Z,11.27
2022-12-03T18:37:29.894Z,13.65
2022-12-03T18:39:58.325Z,11.85
2022-12-03T18:42:25.977Z,9.75
2022-12-03T18:44:55.118Z,8.35
2022-12-03T18:47:25.022Z,9.82
2022-12-03T18:49:52.478Z,11.02
2022-12-03T18:52:22.300Z,10.68
2022-12-03T18:54:49.655Z,14.57
2022-12-03T18:57:17.058Z,21.75
2022-12-03T18:59:44.120Z,22.42
2022-12-03T19:02:38.544Z,31.17
2022-12-03T19:05:05.696Z,44.97
2022-12-03T19:07:32.786Z,36.03
2022-12-03T19:09:59.822Z,26.17
2022-12-03T19:12:26.936Z,20.55
2022-12-03T19:14:53.879Z,15.48
2022-12-03T19:17:21.884Z,16.65
2022-12-03T19:19:49.047Z,17.08
2022-12-03T19:22:16.146Z,17.10
2022-12-03T19:24:43.872Z,14.40
2022-12-03T19:27:10.904Z,17.90
2022-12-03T19:29:37.899Z,17.83
2022-12-03T19:32:05.196Z,16.35
2022-12-03T19:34:32.354Z,13.20
2022-12-03T19:36:59.348Z,11.68
2022-12-03T19:39:26.272Z,12.68
2022-12-03T19:41:53.183Z,14.77
2022-12-03T19:44:20.285Z,13.57
2022-12-03T19:46:49.929Z,17.00
2022-12-03T19:49:18.747Z,16.52
2022-12-03T19:51:45.739Z,15.30
2022-12-03T19:54:13.004Z,18.55
2022-12-03T19:56:40.225Z,13.00
2022-12-03T19:59:08.049Z,11.90
2022-12-03T20:01:36.833Z,12.02
2022-12-03T20:04:04.436Z,18.15
2022-12-03T20:06:35.688Z,43.55
2022-12-03T20:09:09.026Z,21.10
2022-12-03T20:11:36.277Z,20.38
2022-12-03T20:14:06.959Z,16.63
2022-12-03T20:16:34.572Z,21.33
2022-12-03T20:19:06.019Z,22.23
2022-12-03T20:21:35.524Z,19.30
2022-12-03T20:24:04.111Z,20.63
2022-12-03T20:26:31.568Z,18.70
2022-12-03T20:28:58.659Z,15.77
2022-12-03T20:31:28.369Z,15.45
2022-12-03T20:33:57.931Z,14.32
2022-12-03T20:36:25.588Z,17.27
2022-12-03T20:38:57.187Z,13.40
2022-12-03T20:41:24.746Z,12.10
2022-12-03T20:43:52.156Z,15.10
2022-12-03T20:46:25.967Z,17.23
2022-12-03T20:48:56.588Z,19.98
2022-12-03T20:51:26.245Z,20.38
2022-12-03T20:53:53.241Z,19.65
2022-12-03T20:56:22.897Z,19.08
2022-12-03T20:58:50.252Z,15.57
2022-12-03T21:01:19.650Z,17.60
2022-12-03T21:03:47.672Z,16.60
2022-12-03T21:06:17.228Z,18.63
2022-12-03T21:08:44.564Z,22.63
2022-12-03T21:11:19.874Z,23.10
2022-12-03T21:13:47.737Z,23.00
2022-12-03T21:16:18.076Z,20.88
2022-12-03T21:18:45.729Z,21.17
2022-12-03T21:21:14.206Z,24.40
2022-12-03T21:23:41.658Z,25.27
2022-12-03T21:26:19.818Z,25.77
2022-12-03T21:28:48.657Z,21.75
2022-12-03T21:31:25.908Z,17.23
2022-12-03T21:33:54.830Z,17.80
2022-12-03T21:36:22.747Z,15.75
2022-12-03T21:38:50.152Z,14.20
2022-12-03T21:41:17.559Z,14.77
2022-12-03T21:43:45.115Z,21.52
2022-12-03T21:47:08.277Z,18.50
2022-12-03T21:49:02.389Z,12.77
2022-12-03T21:51:29.808Z,14.43
2022-12-03T21:53:56.906Z,30.48
2022-12-03T21:56:23.939Z,21.40
2022-12-03T21:58:51.101Z,18.02
2022-12-03T22:01:22.161Z,26.83
2022-12-03T22:03:49.805Z,22.58
2022-12-03T22:06:17.571Z,17.27
2022-12-03T22:08:44.714Z,17.15
2022-12-03T22:11:22.620Z,16.08
2022-12-03T22:13:50.033Z,19.85
2022-12-03T22:16:19.532Z,19.80
2022-12-03T22:18:46.835Z,18.25
2022-12-03T22:21:17.048Z,21.30
2022-12-03T22:23:44.710Z,19.80
2022-12-03T22:26:14.778Z,22.60
2022-12-03T22:28:46.424Z,22.13
2022-12-03T22:31:14.431Z,21.70
2022-12-03T22:33:41.907Z,20.52
2022-12-03T22:36:18.317Z,23.92
2022-12-03T22:38:47.929Z,21.92
2022-12-03T22:41:15.901Z,28.27
2022-12-03T22:43:43.149Z,23.35
2022-12-03T22:46:12.890Z,20.15
2022-12-03T22:48:41.188Z,18.77
2022-12-03T22:51:20.826Z,25.13
2022-12-03T22:53:48.796Z,25.42
2022-12-03T22:56:17.377Z,24.98
2022-12-03T22:58:44.525Z,20.90
2022-12-03T23:01:30.672Z,24.48
2022-12-03T23:03:58.264Z,24.33
2022-12-03T23:06:25.480Z,26.27
2022-12-03T23:08:52.988Z,24.00
2022-12-03T23:11:20.802Z,26.17
2022-12-03T23:13:48.566Z,28.10
2022-12-03T23:16:26.353Z,26.48
2022-12-03T23:18:54.026Z,21.73
2022-12-03T23:21:29.388Z,19.50
2022-12-03T23:24:01.123Z,19.92
2022-12-03T23:26:28.887Z,19.05
2022-12-03T23:28:56.759Z,17.27
2022-12-03T23:31:26.445Z,14.23
2022-12-03T23:33:54.572Z,21.35
2022-12-03T23:36:23.114Z,16.75
2022-12-03T23:38:50.317Z,12.95
2022-12-03T23:41:19.972Z,15.45
2022-12-03T23:43:47.786Z,11.60
2022-12-03T23:46:21.532Z,17.75
2022-12-03T23:48:48.740Z,10.85
2022-12-03T23:51:26.283Z,6.85
2022-12-03T23:53:55.020Z,8.80
2022-12-03T23:56:25.694Z,7.50
2022-12-03T23:58:52.814Z,7.32
